Time;durP1;ratioP1;P1;durP2;ratioP2;P2;SDS_P1;SDS_P2;PMS_P1;PMS_P2;Temp;Humidity;BMP_temperature;BMP_pressure;BME280_temperature;BME280_humidity;BME280_pressure;Samples;Min_cycle;Max_cycle;Signal;HPM_P1;HPM_P2
2021/06/22 00:00:26;;;;;;;8.52;3.13;;;;;;;-146.52;100.00;63329.72;1025123;29;20378;-85
2021/06/22 00:00:57;;;;;;;7.53;2.80;;;;;;;-146.52;100.00;63329.72;1020822;29;20492;-86
2021/06/22 00:01:28;;;;;;;6.43;3.00;;;;;;;-146.52;100.00;63329.72;1017320;29;20103;-86
2021/06/22 00:01:58;;;;;;;6.10;2.33;;;;;;;-146.52;100.00;63329.72;1009171;29;20457;-84
2021/06/22 00:02:29;;;;;;;7.32;2.42;;;;;;;-146.52;100.00;63329.72;1013197;29;20027;-85
2021/06/22 00:02:59;;;;;;;7.78;2.33;;;;;;;-146.52;100.00;63329.72;1017387;29;20152;-85
2021/06/22 00:03:30;;;;;;;8.02;2.75;;;;;;;-146.52;100.00;63329.72;1013306;29;20028;-87
2021/06/22 00:04:01;;;;;;;6.85;2.63;;;;;;;-146.52;100.00;63329.72;1013218;29;20024;-83
2021/06/22 00:04:31;;;;;;;4.65;2.40;;;;;;;-146.52;100.00;63329.72;1017336;29;20238;-84
2021/06/22 00:05:03;;;;;;;4.60;2.45;;;;;;;-146.52;100.00;63329.72;1013487;29;20463;-83
2021/06/22 00:05:35;;;;;;;7.78;3.08;;;;;;;-146.52;100.00;63329.72;1020939;29;20027;-84
2021/06/22 00:06:06;;;;;;;7.05;2.10;;;;;;;-146.52;100.00;63329.72;1013631;29;20084;-85
2021/06/22 00:06:36;;;;;;;6.05;2.55;;;;;;;-146.52;100.00;63329.72;1017407;29;20150;-84
2021/06/22 00:07:07;;;;;;;4.70;2.70;;;;;;;-146.52;100.00;63329.72;1018168;29;20016;-85
2021/06/22 00:07:38;;;;;;;5.03;2.50;;;;;;;-146.52;100.00;63329.72;1015566;29;20016;-83
2021/06/22 00:08:08;;;;;;;7.00;2.83;;;;;;;-146.52;100.00;63329.72;1012072;29;20036;-83
2021/06/22 00:08:39;;;;;;;4.25;2.67;;;;;;;-146.52;100.00;63329.72;1018825;29;20096;-84
2021/06/22 00:09:09;;;;;;;6.18;2.88;;;;;;;-146.52;100.00;63329.72;1018167;29;20245;-83
2021/06/22 00:09:41;;;;;;;7.88;3.10;;;;;;;-146.52;100.00;63329.72;1015131;29;20107;-84
2021/06/22 00:10:12;;;;;;;8.40;3.08;;;;;;;-146.52;100.00;63329.72;1021939;29;20114;-84
2021/06/22 00:10:42;;;;;;;5.60;2.65;;;;;;;-146.52;100.00;63329.72;1017308;29;20024;-87
2021/06/22 00:11:13;;;;;;;13.95;2.80;;;;;;;-146.52;100.00;63329.72;1021424;29;20412;-86
2021/06/22 00:11:43;;;;;;;6.93;2.67;;;;;;;-146.52;100.00;63329.72;1021175;29;20101;-85
2021/06/22 00:12:14;;;;;;;6.32;2.60;;;;;;;-146.52;100.00;63329.72;1013229;29;20111;-85
2021/06/22 00:12:45;;;;;;;8.95;2.72;;;;;;;-146.52;100.00;63329.72;1021106;29;20397;-86
2021/06/22 00:13:16;;;;;;;6.30;2.70;;;;;;;-146.52;100.00;63329.72;1021066;29;20024;-87
2021/06/22 00:13:46;;;;;;;3.63;2.17;;;;;;;-146.52;100.00;63329.72;1013117;29;20112;-84
2021/06/22 00:14:17;;;;;;;6.15;2.63;;;;;;;-146.52;100.00;63329.72;1017033;29;20115;-85
2021/06/22 00:14:47;;;;;;;5.70;2.50;;;;;;;-146.52;100.00;63329.72;1020806;29;20518;-86
2021/06/22 00:15:19;;;;;;;5.45;2.65;;;;;;;-146.52;100.00;63329.72;1016912;29;20200;-85
2021/06/22 00:15:50;;;;;;;4.85;2.90;;;;;;;-146.52;100.00;63329.72;1024734;29;20024;-85
2021/06/22 00:16:21;;;;;;;9.35;2.58;;;;;;;-146.52;100.00;63329.72;1012917;29;20108;-84
2021/06/22 00:16:51;;;;;;;6.85;2.33;;;;;;;-146.52;100.00;63329.72;1025051;29;20096;-87
2021/06/22 00:17:22;;;;;;;6.30;2.65;;;;;;;-146.52;100.00;63329.72;1025245;29;20110;-84
2021/06/22 00:17:52;;;;;;;7.38;2.45;;;;;;;-146.52;100.00;63329.72;1020914;29;20015;-86
2021/06/22 00:18:23;;;;;;;5.88;2.38;;;;;;;-146.52;100.00;63329.72;1021199;29;20023;-86
2021/06/22 00:18:54;;;;;;;4.88;2.60;;;;;;;-146.52;100.00;63329.72;1024876;29;20568;-86
2021/06/22 00:19:24;;;;;;;5.15;2.40;;;;;;;-146.52;100.00;63329.72;1025065;29;20027;-86
2021/06/22 00:19:55;;;;;;;7.03;2.95;;;;;;;-146.52;100.00;63329.72;1017300;29;20028;-87
2021/06/22 00:20:26;;;;;;;5.53;2.10;;;;;;;-146.52;100.00;63329.72;1017181;29;20020;-87
2021/06/22 00:20:56;;;;;;;4.45;2.33;;;;;;;-146.52;100.00;63329.72;1021144;29;20051;-85
2021/06/22 00:21:27;;;;;;;4.88;2.10;;;;;;;-146.52;100.00;63329.72;1017626;29;20016;-88
2021/06/22 00:21:58;;;;;;;5.30;2.30;;;;;;;-146.52;100.00;63329.72;1018424;29;20028;-87
2021/06/22 00:22:28;;;;;;;4.93;1.95;;;;;;;-146.52;100.00;63329.72;1023592;29;20465;-84
2021/06/22 00:22:59;;;;;;;9.10;2.85;;;;;;;-146.52;100.00;63329.72;1028728;29;20034;-83
2021/06/22 00:23:30;;;;;;;5.13;2.38;;;;;;;-146.52;100.00;63329.72;1028830;29;20031;-85
2021/06/22 00:24:01;;;;;;;5.30;2.50;;;;;;;-146.52;100.00;63329.72;1021069;29;20040;-84
2021/06/22 00:24:32;;;;;;;4.40;2.38;;;;;;;-146.52;100.00;63329.72;1024900;29;20011;-89
2021/06/22 00:25:03;;;;;;;7.57;2.75;;;;;;;-146.52;100.00;63329.72;1024465;29;20106;-88
2021/06/22 00:25:34;;;;;;;5.05;2.45;;;;;;;-146.52;100.00;63329.72;1027194;29;20049;-85
2021/06/22 00:26:05;;;;;;;6.22;2.63;;;;;;;-146.52;100.00;63329.72;1019812;29;20052;-85
2021/06/22 00:26:35;;;;;;;5.68;2.15;;;;;;;-146.52;100.00;63329.72;1035416;28;20023;-86
2021/06/22 00:27:06;;;;;;;5.68;2.33;;;;;;;-146.52;100.00;63329.72;1025831;29;20023;-87
2021/06/22 00:27:37;;;;;;;6.03;2.67;;;;;;;-146.52;100.00;63329.72;1022113;29;20020;-88
2021/06/22 00:28:08;;;;;;;7.22;2.95;;;;;;;-146.52;100.00;63329.72;1022193;29;20121;-88
2021/06/22 00:28:38;;;;;;;6.18;2.35;;;;;;;-146.52;100.00;63329.72;1019166;28;20083;-88
2021/06/22 00:29:09;;;;;;;5.30;2.63;;;;;;;-146.52;100.00;63329.72;1022755;29;20170;-88
2021/06/22 00:29:43;;;;;;;6.03;2.58;;;;;;;-146.52;100.00;63329.72;1025490;29;20085;-85
2021/06/22 00:30:14;;;;;;;5.65;2.20;;;;;;;-146.52;100.00;63329.72;1025681;29;20027;-88
2021/06/22 00:30:44;;;;;;;6.07;2.42;;;;;;;-146.52;100.00;63329.72;1018039;29;20024;-85
2021/06/22 00:31:17;;;;;;;5.60;2.90;;;;;;;-146.52;100.00;63329.72;1025952;29;20130;-87
2021/06/22 00:31:48;;;;;;;5.32;2.83;;;;;;;-146.52;100.00;63329.72;1027133;29;20027;-85
2021/06/22 00:32:19;;;;;;;4.63;2.50;;;;;;;-146.52;100.00;63329.72;1017078;29;20024;-85
2021/06/22 00:32:50;;;;;;;4.60;2.30;;;;;;;-146.52;100.00;63329.72;1029177;29;20094;-88
2021/06/22 00:33:22;;;;;;;5.45;2.70;;;;;;;-146.52;100.00;63329.72;1025165;29;20015;-89
2021/06/22 00:33:54;;;;;;;6.18;3.05;;;;;;;-146.52;100.00;63329.72;1025242;28;20020;-89
2021/06/22 00:34:25;;;;;;;6.57;2.60;;;;;;;-146.52;100.00;63329.72;1029095;28;20031;-87
2021/06/22 00:34:56;;;;;;;8.10;2.67;;;;;;;-146.52;100.00;63329.72;1025063;29;20032;-90
2021/06/22 00:35:29;;;;;;;10.55;3.03;;;;;;;-146.52;100.00;63329.72;1025128;29;20012;-88
2021/06/22 00:36:01;;;;;;;6.45;2.60;;;;;;;-146.52;100.00;63329.72;1033193;28;20058;-89
2021/06/22 00:36:34;;;;;;;4.70;2.13;;;;;;;-146.52;100.00;63329.72;1029150;28;20043;-86
2021/06/22 00:37:30;;;;;;;6.57;2.70;;;;;;;-146.52;100.00;63329.72;1033147;28;20078;-87
2021/06/22 00:38:05;;;;;;;5.55;2.53;;;;;;;-146.52;100.00;63329.72;1033210;28;20114;-90
2021/06/22 00:38:37;;;;;;;5.38;2.80;;;;;;;-146.52;100.00;63329.72;1029163;28;20102;-88
2021/06/22 00:39:12;;;;;;;6.95;3.20;;;;;;;-146.52;100.00;63329.72;1017356;29;20015;-90
2021/06/22 00:39:49;;;;;;;6.38;2.30;;;;;;;-146.52;100.00;63329.72;1029064;28;20011;-82
2021/06/22 00:40:23;;;;;;;5.88;2.50;;;;;;;-146.52;100.00;63329.72;1025060;29;20059;-85
2021/06/22 00:40:54;;;;;;;8.25;2.78;;;;;;;-146.52;100.00;63329.72;1025138;29;20100;-86
2021/06/22 00:41:25;;;;;;;9.23;2.70;;;;;;;-146.52;100.00;63329.72;1028922;28;20008;-85
2021/06/22 00:41:56;;;;;;;6.32;2.30;;;;;;;-146.52;100.00;63329.72;1029077;28;20043;-86
2021/06/22 00:42:27;;;;;;;4.38;2.30;;;;;;;-146.52;100.00;63329.72;1025085;29;20011;-86
2021/06/22 00:42:57;;;;;;;5.03;2.42;;;;;;;-146.52;100.00;63329.72;1017106;29;20021;-84
2021/06/22 00:43:28;;;;;;;6.15;2.70;;;;;;;-146.52;100.00;63329.72;1028163;29;20102;-86
2021/06/22 00:44:09;;;;;;;7.60;2.42;;;;;;;-146.52;100.00;63329.72;1022414;29;20042;-84
2021/06/22 00:44:50;;;;;;;5.32;2.35;;;;;;;-146.52;100.00;63329.72;1021820;29;20115;-84
2021/06/22 00:45:31;;;;;;;6.65;2.97;;;;;;;-146.52;100.00;63329.72;1021757;29;20047;-85
2021/06/22 00:46:02;;;;;;;8.15;2.38;;;;;;;-146.52;100.00;63329.72;1021646;29;20035;-86
2021/06/22 00:46:33;;;;;;;6.20;2.22;;;;;;;-146.52;100.00;63329.72;1017888;29;20035;-85
2021/06/22 00:47:03;;;;;;;5.15;2.10;;;;;;;-146.52;100.00;63329.72;1029797;28;20078;-84
2021/06/22 00:47:34;;;;;;;4.22;2.10;;;;;;;-146.52;100.00;63329.72;1025726;29;20110;-86
2021/06/22 00:48:05;;;;;;;4.45;2.15;;;;;;;-146.52;100.00;63329.72;1020032;29;20036;-87
2021/06/22 00:48:36;;;;;;;5.03;2.38;;;;;;;-146.52;100.00;63329.72;1023484;29;20036;-86
2021/06/22 00:49:06;;;;;;;5.72;2.10;;;;;;;-146.52;100.00;63329.72;1022444;29;20028;-85
2021/06/22 00:49:37;;;;;;;3.80;2.17;;;;;;;-146.52;100.00;63329.72;1020280;29;20034;-86
2021/06/22 00:50:08;;;;;;;6.55;2.38;;;;;;;-146.52;100.00;63329.72;1028989;29;20011;-89
2021/06/22 00:50:39;;;;;;;4.47;2.35;;;;;;;-146.52;100.00;63329.72;1020533;29;20048;-85
2021/06/22 00:51:09;;;;;;;5.88;2.38;;;;;;;-146.52;100.00;63329.72;1025904;28;20031;-87
2021/06/22 00:51:42;;;;;;;5.57;2.20;;;;;;;-146.52;100.00;63329.72;1017999;29;20032;-85
2021/06/22 00:52:13;;;;;;;4.03;2.25;;;;;;;-146.52;100.00;63329.72;1025918;29;20450;-85
2021/06/22 00:52:44;;;;;;;5.35;2.40;;;;;;;-146.52;100.00;63329.72;1031313;28;20026;-88
2021/06/22 00:53:14;;;;;;;5.68;2.20;;;;;;;-146.52;100.00;63329.72;1026243;29;20027;-87
2021/06/22 00:53:45;;;;;;;6.00;2.83;;;;;;;-146.52;100.00;63329.72;1022700;29;20039;-87
2021/06/22 00:54:15;;;;;;;6.15;2.35;;;;;;;-146.52;100.00;63329.72;1021634;29;20547;-85
2021/06/22 00:54:46;;;;;;;4.20;2.10;;;;;;;-146.52;100.00;63329.72;1021496;29;20047;-86
2021/06/22 00:55:29;;;;;;;4.10;2.20;;;;;;;-146.52;100.00;63329.72;1021697;29;20035;-85
2021/06/22 00:56:00;;;;;;;5.15;2.55;;;;;;;-146.52;100.00;63329.72;1018515;29;20028;-88
2021/06/22 00:56:30;;;;;;;8.80;2.50;;;;;;;-146.52;100.00;63329.72;1030010;28;20027;-87
2021/06/22 00:57:08;;;;;;;5.45;2.35;;;;;;;-146.52;100.00;63329.72;1018024;29;20530;-86
2021/06/22 00:57:39;;;;;;;6.40;2.20;;;;;;;-146.52;100.00;63329.72;1026072;29;20033;-86
2021/06/22 00:58:10;;;;;;;8.63;1.90;;;;;;;-146.52;100.00;63329.72;1021764;29;20030;-86
2021/06/22 00:58:42;;;;;;;4.45;2.10;;;;;;;-146.52;100.00;63329.72;1025725;29;20061;-86
2021/06/22 00:59:12;;;;;;;3.60;2.08;;;;;;;-146.52;100.00;63329.72;1021885;29;20024;-85
2021/06/22 00:59:43;;;;;;;3.80;2.00;;;;;;;-146.52;100.00;63329.72;1027285;29;20501;-87
2021/06/22 01:00:14;;;;;;;5.10;2.05;;;;;;;-146.52;100.00;63329.72;1024808;29;20020;-85
2021/06/22 01:00:45;;;;;;;3.58;1.75;;;;;;;-146.52;100.00;63329.72;1028380;29;20086;-89
2021/06/22 01:01:16;;;;;;;5.53;2.30;;;;;;;-146.52;100.00;63329.72;1032374;28;20034;-88
2021/06/22 01:01:47;;;;;;;4.72;1.73;;;;;;;-146.52;100.00;63329.72;1017235;29;20019;-87
2021/06/22 01:02:19;;;;;;;5.82;2.25;;;;;;;-146.52;100.00;63329.72;1028853;28;20011;-91
2021/06/22 01:02:49;;;;;;;3.92;2.00;;;;;;;-146.52;100.00;63329.72;1025098;29;20022;-88
2021/06/22 01:03:20;;;;;;;4.60;2.13;;;;;;;-146.52;100.00;63329.72;1024870;29;20024;-90
2021/06/22 01:03:51;;;;;;;5.15;2.53;;;;;;;-146.52;100.00;63329.72;1020199;29;20027;-88
2021/06/22 01:04:21;;;;;;;2.53;1.70;;;;;;;-146.52;100.00;63329.72;1029006;28;20042;-87
2021/06/22 01:04:52;;;;;;;6.25;1.83;;;;;;;-146.52;100.00;63329.72;1021052;29;20039;-87
2021/06/22 01:05:23;;;;;;;5.05;2.28;;;;;;;-146.52;100.00;63329.72;1028792;29;20112;-89
2021/06/22 01:05:54;;;;;;;4.35;2.08;;;;;;;-146.52;100.00;63329.72;1021130;29;20019;-86
2021/06/22 01:06:25;;;;;;;4.93;1.83;;;;;;;-146.52;100.00;63329.72;1025100;28;20008;-90
2021/06/22 01:06:56;;;;;;;3.30;1.60;;;;;;;-146.52;100.00;63329.72;1024924;29;20023;-88
2021/06/22 01:07:27;;;;;;;7.57;2.10;;;;;;;-146.52;100.00;63329.72;1024799;29;20035;-84
2021/06/22 01:07:58;;;;;;;4.55;2.08;;;;;;;-146.52;100.00;63329.72;1016120;29;20035;-89
2021/06/22 01:08:29;;;;;;;7.55;2.05;;;;;;;-146.52;100.00;63329.72;1024513;29;20024;-84
2021/06/22 01:09:00;;;;;;;5.20;2.35;;;;;;;-146.52;100.00;63329.72;1020756;29;20126;-84
2021/06/22 01:09:31;;;;;;;3.58;1.85;;;;;;;-146.52;100.00;63329.72;1022373;29;20031;-85
2021/06/22 01:10:02;;;;;;;4.35;2.00;;;;;;;-146.52;100.00;63329.72;1025599;29;20033;-84
2021/06/22 01:10:33;;;;;;;2.88;2.00;;;;;;;-146.52;100.00;63329.72;1017929;29;20024;-84
2021/06/22 01:11:04;;;;;;;4.78;1.80;;;;;;;-146.52;100.00;63329.72;1028105;29;20019;-84
2021/06/22 01:11:36;;;;;;;3.25;1.98;;;;;;;-146.52;100.00;63329.72;1024588;29;20019;-88
2021/06/22 01:12:08;;;;;;;6.35;2.38;;;;;;;-146.52;100.00;63329.72;1021008;29;20033;-87
2021/06/22 01:12:39;;;;;;;4.47;1.92;;;;;;;-146.52;100.00;63329.72;1025077;29;20024;-87
2021/06/22 01:13:10;;;;;;;6.00;2.20;;;;;;;-146.52;100.00;63329.72;1016904;29;20033;-85
2021/06/22 01:13:42;;;;;;;3.83;2.10;;;;;;;-146.52;100.00;63329.72;1025077;29;20023;-88
2021/06/22 01:14:15;;;;;;;3.97;2.17;;;;;;;-146.52;100.00;63329.72;1033179;28;20027;-89
2021/06/22 01:14:46;;;;;;;6.45;2.00;;;;;;;-146.52;100.00;63329.72;1025061;29;20050;-87
2021/06/22 01:15:21;;;;;;;4.05;1.88;;;;;;;-146.52;100.00;63329.72;1021055;29;20022;-87
2021/06/22 01:15:52;;;;;;;4.18;1.67;;;;;;;-146.52;100.00;63329.72;1028727;28;20128;-87
2021/06/22 01:16:26;;;;;;;4.03;1.67;;;;;;;-146.52;100.00;63329.72;1015020;29;20087;-86
2021/06/22 01:16:56;;;;;;;4.00;1.88;;;;;;;-146.52;100.00;63329.72;1017890;29;20506;-87
2021/06/22 01:17:30;;;;;;;3.90;2.20;;;;;;;-146.52;100.00;63329.72;1025762;29;20106;-85
2021/06/22 01:18:02;;;;;;;4.38;1.80;;;;;;;-146.52;100.00;63329.72;1021307;29;20024;-85
2021/06/22 01:18:33;;;;;;;5.43;1.95;;;;;;;-146.52;100.00;63329.72;1017667;29;20024;-85
2021/06/22 01:19:05;;;;;;;5.20;1.92;;;;;;;-146.52;100.00;63329.72;1025295;29;20074;-87
2021/06/22 01:19:36;;;;;;;3.90;1.83;;;;;;;-146.52;100.00;63329.72;1019394;29;20114;-87
2021/06/22 01:20:07;;;;;;;6.00;1.70;;;;;;;-146.52;100.00;63329.72;1021437;29;20020;-86
2021/06/22 01:20:38;;;;;;;3.95;1.60;;;;;;;-146.52;100.00;63329.72;1017460;29;20084;-87
2021/06/22 01:21:13;;;;;;;3.83;1.67;;;;;;;-146.52;100.00;63329.72;1013899;29;20514;-87
2021/06/22 01:21:44;;;;;;;3.13;1.70;;;;;;;-146.52;100.00;63329.72;1024683;29;20121;-85
2021/06/22 01:22:14;;;;;;;4.40;2.03;;;;;;;-146.52;100.00;63329.72;1013024;29;20025;-89
2021/06/22 01:22:46;;;;;;;5.50;1.73;;;;;;;-146.52;100.00;63329.72;1017905;29;20464;-87
2021/06/22 01:23:16;;;;;;;6.55;1.83;;;;;;;-146.52;100.00;63329.72;1024579;29;20028;-88
2021/06/22 01:23:47;;;;;;;5.65;1.40;;;;;;;-146.52;100.00;63329.72;1021567;29;20420;-88
2021/06/22 01:24:20;;;;;;;2.67;1.40;;;;;;;-146.52;100.00;63329.72;1021051;29;20134;-87
2021/06/22 01:24:52;;;;;;;3.45;1.70;;;;;;;-146.52;100.00;63329.72;1025349;29;20019;-85
2021/06/22 01:25:23;;;;;;;4.07;1.70;;;;;;;-146.52;100.00;63329.72;1018251;29;20052;-86
2021/06/22 01:25:54;;;;;;;5.68;1.80;;;;;;;-146.52;100.00;63329.72;1021255;29;20165;-85
2021/06/22 01:26:24;;;;;;;3.13;1.52;;;;;;;-146.52;100.00;63329.72;1013216;29;20119;-83
2021/06/22 01:26:57;;;;;;;6.32;1.90;;;;;;;-146.52;100.00;63329.72;1021431;29;20111;-85
2021/06/22 01:27:28;;;;;;;4.32;1.80;;;;;;;-146.52;100.00;63329.72;1017233;29;20035;-87
2021/06/22 01:27:59;;;;;;;5.50;1.80;;;;;;;-146.52;100.00;63329.72;1017157;29;20050;-86
2021/06/22 01:28:29;;;;;;;3.65;2.03;;;;;;;-146.52;100.00;63329.72;1023482;29;20078;-87
2021/06/22 01:29:00;;;;;;;4.80;1.88;;;;;;;-146.52;100.00;63329.72;1022988;29;20030;-87
2021/06/22 01:29:30;;;;;;;3.35;1.60;;;;;;;-146.52;100.00;63329.72;1019216;29;20035;-86
2021/06/22 01:30:01;;;;;;;2.72;1.60;;;;;;;-146.52;100.00;63329.72;1023063;29;20118;-86
2021/06/22 01:30:32;;;;;;;2.80;1.38;;;;;;;-146.52;100.00;63329.72;1023413;29;20023;-86
2021/06/22 01:31:03;;;;;;;3.15;1.50;;;;;;;-146.52;100.00;63329.72;1032162;28;20015;-87
2021/06/22 01:31:34;;;;;;;5.65;1.75;;;;;;;-146.52;100.00;63329.72;1016664;29;20084;-86
2021/06/22 01:32:07;;;;;;;3.60;1.75;;;;;;;-146.52;100.00;63329.72;1020504;29;20048;-86
2021/06/22 01:32:38;;;;;;;5.00;2.15;;;;;;;-146.52;100.00;63329.72;1025266;28;20031;-87
2021/06/22 01:33:08;;;;;;;3.58;1.58;;;;;;;-146.52;100.00;63329.72;1032295;28;20038;-85
2021/06/22 01:33:44;;;;;;;3.83;1.80;;;;;;;-146.52;100.00;63329.72;1024151;29;20024;-86
2021/06/22 01:34:20;;;;;;;4.13;1.98;;;;;;;-146.52;100.00;63329.72;1016397;29;20024;-87
2021/06/22 01:34:50;;;;;;;8.73;1.95;;;;;;;-146.52;100.00;63329.72;1024480;29;20071;-86
2021/06/22 01:35:21;;;;;;;3.50;1.95;;;;;;;-146.52;100.00;63329.72;1027644;29;20046;-86
2021/06/22 01:35:52;;;;;;;4.90;1.88;;;;;;;-146.52;100.00;63329.72;1019399;29;20092;-86
2021/06/22 01:36:23;;;;;;;3.30;1.55;;;;;;;-146.52;100.00;63329.72;1023633;29;20027;-85
2021/06/22 01:36:54;;;;;;;5.68;1.90;;;;;;;-146.52;100.00;63329.72;1024934;29;20026;-85
2021/06/22 01:37:25;;;;;;;4.03;1.60;;;;;;;-146.52;100.00;63329.72;1025019;29;20011;-87
2021/06/22 01:37:57;;;;;;;5.00;1.80;;;;;;;-146.52;100.00;63329.72;1017018;29;20096;-87
2021/06/22 01:38:27;;;;;;;4.85;1.70;;;;;;;-146.52;100.00;63329.72;1025056;29;20023;-89
2021/06/22 01:38:58;;;;;;;4.13;1.75;;;;;;;-146.52;100.00;63329.72;1025215;28;20030;-87
2021/06/22 01:39:29;;;;;;;2.92;1.55;;;;;;;-146.52;100.00;63329.72;1025811;29;20036;-90
2021/06/22 01:40:06;;;;;;;3.00;1.50;;;;;;;-146.52;100.00;63329.72;1029625;28;20016;-85
2021/06/22 01:40:45;;;;;;;3.72;1.73;;;;;;;-146.52;100.00;63329.72;1021438;29;20028;-86
2021/06/22 01:41:15;;;;;;;4.22;1.70;;;;;;;-146.52;100.00;63329.72;1033683;28;20022;-83
2021/06/22 01:41:46;;;;;;;5.65;2.05;;;;;;;-146.52;100.00;63329.72;1021703;29;20304;-89
2021/06/22 01:42:18;;;;;;;3.95;1.88;;;;;;;-146.52;100.00;63329.72;1021880;29;20028;-87
2021/06/22 01:42:50;;;;;;;4.20;1.85;;;;;;;-146.52;100.00;63329.72;1019891;29;20017;-89
2021/06/22 01:43:24;;;;;;;5.55;1.90;;;;;;;-146.52;100.00;63329.72;1017946;29;20120;-86
2021/06/22 01:43:55;;;;;;;4.50;1.63;;;;;;;-146.52;100.00;63329.72;1021784;29;20017;-91
2021/06/22 01:44:28;;;;;;;6.38;1.75;;;;;;;-146.52;100.00;63329.72;1017942;29;20027;-89
2021/06/22 01:44:59;;;;;;;4.68;1.75;;;;;;;-146.52;100.00;63329.72;1021745;29;20024;-90
2021/06/22 01:45:30;;;;;;;3.22;1.67;;;;;;;-146.52;100.00;63329.72;1017845;29;20020;-86
2021/06/22 01:46:01;;;;;;;6.40;1.92;;;;;;;-146.52;100.00;63329.72;1017895;29;20027;-87
2021/06/22 01:46:33;;;;;;;5.88;1.60;;;;;;;-146.52;100.00;63329.72;1021799;29;20035;-86
2021/06/22 01:47:07;;;;;;;8.68;1.90;;;;;;;-146.52;100.00;63329.72;1017624;29;20032;-83
2021/06/22 01:47:40;;;;;;;3.45;1.83;;;;;;;-146.52;100.00;63329.72;1021719;29;20134;-83
2021/06/22 01:48:13;;;;;;;3.35;1.70;;;;;;;-146.52;100.00;63329.72;1017872;29;20005;-84
2021/06/22 01:48:46;;;;;;;5.15;2.22;;;;;;;-146.52;100.00;63329.72;1025885;29;20198;-84
2021/06/22 01:49:18;;;;;;;3.90;2.20;;;;;;;-146.52;100.00;63329.72;1021565;29;20012;-83
2021/06/22 01:49:57;;;;;;;5.38;1.67;;;;;;;-146.52;100.00;63329.72;1025908;29;20035;-87
2021/06/22 01:50:28;;;;;;;3.42;1.85;;;;;;;-146.52;100.00;63329.72;1017958;29;20017;-91
2021/06/22 01:50:58;;;;;;;3.92;1.75;;;;;;;-146.52;100.00;63329.72;1017876;29;20036;-87
2021/06/22 01:51:29;;;;;;;6.85;1.80;;;;;;;-146.52;100.00;63329.72;1017794;29;20056;-84
2021/06/22 01:52:01;;;;;;;5.50;2.17;;;;;;;-146.52;100.00;63329.72;1021719;29;20035;-87
2021/06/22 01:52:32;;;;;;;2.55;1.73;;;;;;;-146.52;100.00;63329.72;1018085;29;20040;-87
2021/06/22 01:53:03;;;;;;;4.43;1.90;;;;;;;-146.52;100.00;63329.72;1017915;29;20020;-90
2021/06/22 01:53:33;;;;;;;3.83;1.65;;;;;;;-146.52;100.00;63329.72;1017826;29;20027;-84
2021/06/22 01:54:05;;;;;;;5.25;1.90;;;;;;;-146.52;100.00;63329.72;1017709;29;20109;-82
2021/06/22 01:54:37;;;;;;;3.28;1.55;;;;;;;-146.52;100.00;63329.72;1013923;29;20076;-83
2021/06/22 01:56:00;;;;;;;4.95;2.20;;;;;;;-146.52;100.00;63329.72;1021687;29;20084;-84
2021/06/22 01:56:34;;;;;;;6.40;3.53;;;;;;;-146.52;100.00;63329.72;1017996;29;20052;-83
2021/06/22 01:57:07;;;;;;;4.80;1.70;;;;;;;-146.52;100.00;63329.72;1023730;29;20016;-83
2021/06/22 01:57:39;;;;;;;2.78;1.60;;;;;;;-146.52;100.00;63329.72;1029655;29;20094;-82
2021/06/22 01:58:12;;;;;;;5.47;2.28;;;;;;;-146.52;100.00;63329.72;1029558;28;19999;-84
2021/06/22 01:58:43;;;;;;;4.00;1.52;;;;;;;-146.52;100.00;63329.72;1017837;29;20012;-84
2021/06/22 01:59:14;;;;;;;4.00;1.98;;;;;;;-146.52;100.00;63329.72;1029755;29;20007;-83
2021/06/22 01:59:44;;;;;;;7.00;1.90;;;;;;;-146.52;100.00;63329.72;1025671;29;20007;-89
2021/06/22 02:00:16;;;;;;;6.68;1.90;;;;;;;-146.52;100.00;63329.72;1024770;29;20024;-85
2021/06/22 02:00:49;;;;;;;5.28;1.88;;;;;;;-146.52;100.00;63329.72;1033106;28;20420;-84
2021/06/22 02:01:20;;;;;;;4.47;2.10;;;;;;;-146.52;100.00;63329.72;1024597;29;20015;-83
2021/06/22 02:01:51;;;;;;;3.95;1.60;;;;;;;-146.52;100.00;63329.72;1025489;29;20096;-83
2021/06/22 02:02:24;;;;;;;3.45;1.80;;;;;;;-146.52;100.00;63329.72;1025775;29;20019;-90
2021/06/22 02:03:06;;;;;;;3.63;1.60;;;;;;;-146.52;100.00;63329.72;1021925;29;20012;-84
2021/06/22 02:03:46;;;;;;;3.78;1.67;;;;;;;-146.52;100.00;63329.72;1017908;29;20023;-86
2021/06/22 02:04:43;;;;;;;5.97;1.98;;;;;;;-146.52;100.00;63329.72;1017809;29;20045;-83
2021/06/22 02:05:23;;;;;;;3.83;1.88;;;;;;;-146.52;100.00;63329.72;1026776;29;20012;-84
2021/06/22 02:06:15;;;;;;;3.65;1.65;;;;;;;-146.52;100.00;63329.72;1030451;28;20020;-85
2021/06/22 02:06:53;;;;;;;3.50;1.92;;;;;;;-146.52;100.00;63329.72;1029643;28;20012;-86
2021/06/22 02:07:30;;;;;;;4.05;1.50;;;;;;;-146.52;100.00;63329.72;1025819;29;20059;-83
2021/06/22 02:08:03;;;;;;;3.22;1.75;;;;;;;-146.52;100.00;63329.72;1037779;28;20110;-85
2021/06/22 02:08:34;;;;;;;3.45;1.60;;;;;;;-146.52;100.00;63329.72;1021829;29;20087;-88
2021/06/22 02:09:05;;;;;;;4.78;1.50;;;;;;;-146.52;100.00;63329.72;1025746;28;20036;-88
2021/06/22 02:09:37;;;;;;;7.68;2.00;;;;;;;-146.52;100.00;63329.72;1025750;29;20008;-86
2021/06/22 02:10:10;;;;;;;6.50;2.38;;;;;;;-146.52;100.00;63329.72;1025581;29;20016;-86
2021/06/22 02:10:55;;;;;;;3.83;1.77;;;;;;;-146.52;100.00;63329.72;1029599;28;20033;-88
2021/06/22 02:11:36;;;;;;;4.90;1.65;;;;;;;-146.52;100.00;63329.72;1025786;29;20027;-84
2021/06/22 02:12:09;;;;;;;6.82;1.67;;;;;;;-146.52;100.00;63329.72;1033629;28;20054;-89
2021/06/22 02:12:40;;;;;;;3.88;1.60;;;;;;;-146.52;100.00;63329.72;1025801;29;20004;-87
2021/06/22 02:13:11;;;;;;;3.55;1.70;;;;;;;-146.52;100.00;63329.72;1029874;28;20012;-84
2021/06/22 02:13:41;;;;;;;4.65;1.80;;;;;;;-146.52;100.00;63329.72;1033136;28;20015;-84
2021/06/22 02:14:12;;;;;;;4.82;1.80;;;;;;;-146.52;100.00;63329.72;1024962;29;20043;-86
2021/06/22 02:14:43;;;;;;;4.18;1.58;;;;;;;-146.52;100.00;63329.72;1021054;29;20113;-86
2021/06/22 02:15:14;;;;;;;4.13;1.77;;;;;;;-146.52;100.00;63329.72;1032898;28;20031;-88
2021/06/22 02:15:45;;;;;;;5.22;1.70;;;;;;;-146.52;100.00;63329.72;1020543;29;20020;-87
2021/06/22 02:16:16;;;;;;;3.78;1.70;;;;;;;-146.52;100.00;63329.72;1024050;29;20023;-87
2021/06/22 02:16:46;;;;;;;2.90;1.50;;;;;;;-146.52;100.00;63329.72;1020037;29;20043;-84
2021/06/22 02:17:17;;;;;;;5.43;1.98;;;;;;;-146.52;100.00;63329.72;1018685;29;20423;-85
2021/06/22 02:17:48;;;;;;;3.92;1.80;;;;;;;-146.52;100.00;63329.72;1022823;29;20095;-85
2021/06/22 02:18:19;;;;;;;5.20;1.65;;;;;;;-146.52;100.00;63329.72;1021053;29;20000;-88
2021/06/22 02:18:50;;;;;;;4.28;1.50;;;;;;;-146.52;100.00;63329.72;1017436;29;20028;-82
2021/06/22 02:19:21;;;;;;;6.78;1.60;;;;;;;-146.52;100.00;63329.72;1017087;29;20012;-82
2021/06/22 02:19:52;;;;;;;4.50;1.50;;;;;;;-146.52;100.00;63329.72;1021017;29;20024;-82
2021/06/22 02:20:23;;;;;;;4.10;1.65;;;;;;;-146.52;100.00;63329.72;1020752;29;20111;-86
2021/06/22 02:20:54;;;;;;;7.47;1.98;;;;;;;-146.52;100.00;63329.72;1020971;29;20023;-83
2021/06/22 02:21:24;;;;;;;5.85;1.77;;;;;;;-146.52;100.00;63329.72;1018885;29;20020;-84
2021/06/22 02:21:55;;;;;;;4.43;1.55;;;;;;;-146.52;100.00;63329.72;1030554;28;20114;-85
2021/06/22 02:22:26;;;;;;;2.83;1.50;;;;;;;-146.52;100.00;63329.72;1024215;29;20024;-83
2021/06/22 02:22:57;;;;;;;6.00;1.70;;;;;;;-146.52;100.00;63329.72;1025073;29;20003;-83
2021/06/22 02:23:27;;;;;;;3.22;1.50;;;;;;;-146.52;100.00;63329.72;1021316;29;20769;-85
2021/06/22 02:23:58;;;;;;;4.43;1.77;;;;;;;-146.52;100.00;63329.72;1028913;29;20023;-82
2021/06/22 02:24:29;;;;;;;4.47;1.80;;;;;;;-146.52;100.00;63329.72;1024787;29;20024;-84
2021/06/22 02:25:00;;;;;;;5.82;1.60;;;;;;;-146.52;100.00;63329.72;1014627;29;20088;-82
2021/06/22 02:25:30;;;;;;;5.03;1.63;;;;;;;-146.52;100.00;63329.72;1026166;29;20106;-83
2021/06/22 02:26:01;;;;;;;4.55;1.42;;;;;;;-146.52;100.00;63329.72;1014797;29;20033;-84
2021/06/22 02:26:31;;;;;;;3.55;1.40;;;;;;;-146.52;100.00;63329.72;1022271;29;20413;-83